Edmonton / Gartner Airport

CFQ7 · Alberta, Canada

METAR history CFQ7 · Edmonton / Gartner Airport

Below you see METARs of the last few days. Select a year to browse through older METARs, from the year 2007 onwards.

November 27, 2022

Time Code Weather Temp. Visibility Ceiling Wind METAR/SPECI
05:00
V
-2 °C 20 mi 13,000 ft 300° 300° 4 kt METAR CYEG 271200Z 30004KT 20SM SCT095 BKN130 BKN210 M02/M06 A2936 RMK AC3AC3CI1 SLP973
05:00
V
-2 °C 20 mi 13,000 ft 300° 300° 4 kt METAR CYEG 271200Z 30004KT 20SM SCT095 BKN130 BKN210 M02/M06 A2936 RMK AC3AC3CI1 SLP973
04:00
V
-1 °C 20 mi 13,000 ft 270° 270° 3 kt METAR CYEG 271100Z 27003KT 20SM FEW095 BKN130 BKN200 M01/M05 A2936 RMK AC2AC4CI1 SLP973
03:00
V
1 °C 20 mi 12,000 ft 200° 200° 7 kt METAR CYEG 271000Z 20007KT 20SM FEW081 SCT095 OVC120 01/M05 A2937 RMK AC2AC2AC4 VIRGA PTCHS SLP974
02:00
V
2 °C 20 mi 11,000 ft 200° 200° 9 kt METAR CYEG 270900Z 20009KT 20SM SCT095 OVC110 02/M05 A2938 RMK AC4AS4 SLP977
01:00
V
1 °C 20 mi 9,600 ft 200° 200° 9 kt METAR CYEG 270800Z 20009KT 20SM SCT081 OVC096 01/M05 A2939 RMK AS4AS4 VIRGA OHD SLP982
00:00
V
1 °C 20 mi 8,800 ft 190° 190° 8 kt METAR CYEG 270700Z 19008KT 20SM OVC088 01/M05 A2941 RMK AS8 VIRGA OHD SLP991

November 26, 2022

Time Code Weather Temp. Visibility Ceiling Wind METAR/SPECI
23:00
V
0 °C 20 mi 8,100 ft 170° 170° 8 kt METAR CYEG 270600Z 17008KT 20SM OVC081 00/M06 A2944 RMK AS8 SLP002
22:00
V
-1 °C 20 mi 8,100 ft 170° 170° 8 kt METAR CYEG 270500Z 17008KT 20SM OVC081 M01/M06 A2948 RMK AS8 SLP017
21:00
V
-2 °C 20 mi 18,000 ft 180° 180° 11 kt METAR CYEG 270400Z 18011KT 20SM SCT100 BKN180 M02/M06 A2950 RMK AC4AS3 SLP028
20:00
V
-1 °C 20 mi 21,000 ft 170° 170° 10 kt METAR CYEG 270300Z 17010KT 20SM FEW120 BKN210 M01/M06 A2955 RMK AC1CI6 AC TR CC ASOCTD SLP040
19:00
V
-3 °C 20 mi - 180° 180° 10 kt METAR CYEG 270200Z 18010KT 20SM FEW120 FEW250 M03/M06 A2958 RMK AC1CI2 AC TR SLP053
18:00
V
1 °C 20 mi 8,000 ft 160° 160° 10 kt METAR CYEG 270100Z 16010KT 20SM BKN080 BKN160 BKN250 01/M05 A2961 RMK AC5AC1CI1 PTCHS VIRGA PRESFR SLP058
17:00
V
0 °C 20 mi 8,000 ft 180° 180° 11 kt METAR CYEG 270000Z 18011KT 20SM BKN080 BKN140 BKN250 00/M04 A2965 RMK AC5AC2CI1 CI TR PTCHS VIRGA PRESFR SLP076
16:00
V
1 °C 20 mi 9,000 ft 190° 190° 8 kt METAR CYEG 262300Z 19008KT 20SM BKN090 BKN250 01/M04 A2969 RMK AC7CI1 CI TR VIRGA SW-NW-NE SLP089
15:00
V
0 °C 20 mi 14,000 ft 180° 180° 7 kt METAR CYEG 262200Z 18007KT 20SM FEW100 BKN140 BKN250 00/M04 A2971 RMK AC1AC7CI1 AC TR CI TR VIRGA DIST SW SLP099
14:00
V
1 °C 20 mi 19,000 ft 180° 180° 7 kt METAR CYEG 262100Z 18007KT 20SM FEW100 BKN190 BKN250 01/M05 A2975 RMK AC1AC5CI1 SLP108
13:00
V
0 °C 20 mi 9,800 ft 190° 190° 7 kt METAR CYEG 262000Z 19007KT 20SM BKN098 BKN180 BKN250 00/M04 A2977 RMK AC5AC2CI1 CI TR SLP118
12:00
V
-1 °C 20 mi 25,000 ft 200° 200° 6 kt METAR CYEG 261900Z 20006KT 20SM FEW120 FEW180 BKN250 M01/M06 A2981 RMK AC1AC2CI4 AC TR SLP131
11:00
V
-1 °C 20 mi 25,000 ft 200° 200° 7 kt METAR CYEG 261800Z 20007KT 20SM FEW180 BKN250 M01/M07 A2983 RMK AC2CI4 SLP138
10:00
V
-4 °C 20 mi 23,000 ft 200° 200° 7 kt METAR CYEG 261700Z 20007KT 20SM FEW075 FEW160 BKN230 M04/M08 A2985 RMK AC1AC2CI3 AC TR SLP147
09:00
V
-3 °C 20 mi 25,000 ft 200° 200° 5 kt METAR CYEG 261600Z 20005KT 20SM FEW074 SCT180 BKN250 M03/M07 A2986 RMK AC1AC3CI3 AC TR SLP147
08:00
V
-1 °C 20 mi 7,400 ft 230° 230° 6 kt METAR CYEG 261500Z 23006KT 20SM BKN074 BKN250 M01/M06 A2987 RMK AC7CI1 CI TR SLP149
07:00
V
-1 °C 20 mi 8,200 ft 240° 240° 10 kt METAR CYEG 261400Z 24010KT 20SM BKN082 M01/M06 A2987 RMK AC7 SLP149
06:00
V
-1 °C 20 mi 8,500 ft 250° 250° 8 kt METAR CYEG 261300Z 25008KT 20SM BKN085 M01/M06 A2987 RMK AC7 SLP152
05:00
V
-2 °C 20 mi 8,100 ft 240° 240° 7 kt METAR CYEG 261200Z 24007KT 20SM BKN081 M02/M06 A2987 RMK AC7 SLP151
04:00
V
-3 °C 20 mi 7,500 ft 230° 230° 8 kt METAR CYEG 261100Z 23008KT 20SM BKN075 M03/M07 A2988 RMK AC7 SLP153
03:00
V
-4 °C 20 mi - 250° 250° 9 kt METAR CYEG 261000Z 25009KT 20SM FEW078 M04/M09 A2988 RMK AC2 SLP153
02:00
V
-3 °C 20 mi - 260° 260° 10 kt METAR CYEG 260900Z 26010KT 20SM FEW073 M03/M08 A2986 RMK AC1 SLP146
01:00
V
-2 °C 20 mi 7,300 ft 260° 260° 7 kt METAR CYEG 260800Z 26007KT 20SM BKN073 M02/M07 A2985 RMK AC7 SLP144
00:00
V
-3 °C 20 mi 7,400 ft 240° 240° 7 kt METAR CYEG 260700Z 24007KT 20SM BKN074 M03/M08 A2984 RMK AC7 SLP142

November 25, 2022

Time Code Weather Temp. Visibility Ceiling Wind METAR/SPECI
23:00
V
0 °C 20 mi 11,000 ft 280° 280° 8 kt METAR CYEG 260600Z 28008KT 20SM FEW075 BKN110 M00/M08 A2983 RMK AC2AC3 SLP135
22:00
V
-3 °C 20 mi - 260° 260° 10 kt METAR CYEG 260500Z 26010KT 20SM FEW100 FEW250 M03/M08 A2981 RMK AC1CI1 CI TR SLP135
21:00
V
1 °C 20 mi - 280° 280° 8 kt METAR CYEG 260400Z 28008KT 20SM SCT100 SCT250 01/M07 A2978 RMK AC3CI1 CI TR SLP125
20:00
V
1 °C 20 mi - 300° 300° 9 kt METAR CYEG 260300Z 30009KT 20SM FEW160 FEW250 01/M06 A2977 RMK AC1CI1 AC TR CI TR SLP124
19:00
V
1 °C 20 mi - 290° 290° 7 kt METAR CYEG 260200Z 29007KT 20SM FEW160 FEW250 01/M04 A2975 RMK AC1CI1 SLP115
18:00
V
0 °C 20 mi - 230° 230° 6 kt METAR CYEG 260100Z 23006KT 20SM FEW150 SCT250 M00/M02 A2974 RMK AC2CI2 SLP113
17:00
V
1 °C 20 mi 15,000 ft 250° 250° 6 kt METAR CYEG 260000Z 25006KT 20SM BKN150 01/M02 A2974 RMK AC7 SLP110
16:00
V
3 °C 20 mi 9,500 ft 310° 310° 12 kt METAR CYEG 252300Z 31012KT 20SM FEW034 BKN095 03/M03 A2972 RMK SC1AC7 SC TR SLP101
15:00
V
3 °C 20 mi 3,400 ft 280° 280° 7 kt METAR CYEG 252200Z 28007KT 20SM BKN034 OVC080 03/M00 A2971 RMK SC5AC3 SLP099
14:00
V
2 °C 20 mi 7,500 ft 250° 250° 8 kt METAR CYEG 252100Z 25008KT 20SM FEW050 OVC075 02/01 A2970 RMK SC2AC6 SLP096
13:00
V
2 °C 20 mi 7,300 ft 230° 230° 6 kt METAR CYEG 252000Z 23006KT 20SM OVC073 02/01 A2969 RMK AC8 SLP092
12:21
V
1 °C 20 mi 8,800 ft 170° 170° 6 kt METAR CYEG 251921Z 17006KT 20SM SCT020 OVC088 01/M00 A2970 RMK SC3AC5 PRESFR SLP095
12:00
M
1 °C 20 mi 1,600 ft 330° 330° 6 kt METAR CYEG 251900Z 33006KT 310V010 20SM -RA OVC016 01/M00 A2973 RMK SC8 SLP104
11:33
M
0 °C 20 mi 2,500 ft 340° 340° 11 kt METAR CYEG 251833Z 34011KT 20SM -RA BKN025 OVC062 00/M01 A2972 RMK SC6SC2 SLP098
11:25
M
0 °C 20 mi 2,800 ft 330° 330° 7 kt METAR CYEG 251825Z CCB 33007KT 20SM -SHSN BKN028 OVC062 M00/M02 A2971 RMK SC5SC3 CVCTV CLD EMBD SLP095
11:00
V
-1 °C 20 mi 6,200 ft 270° 270° 3 kt METAR CYEG 251800Z 27003KT 260V320 20SM BKN062 OVC120 M01/M03 A2970 RMK SC7AC1 VIRGA PTCHS SLP095
10:00
V
-4 °C 20 mi 7,000 ft 290° 290° 5 kt METAR CYEG 251700Z 29005KT 270V330 20SM BKN070 BKN180 OVC250 M04/M05 A2969 RMK AC7AC1CI1 AC TR VIRGA OHD SLP093
09:00
V
-8 °C 20 mi 18,000 ft Var 000° 0 kt METAR CYEG 251600Z 00000KT 20SM FEW060 SCT080 BKN180 BKN250 M08/M09 A2964 RMK SC1AC4AC1CI2 SC TR FROIN SLP078
08:00
V
-11 °C 20 mi 8,000 ft 190° 190° 4 kt METAR CYEG 251500Z 19004KT 20SM BKN080 BKN180 BKN250 M11/M11 A2967 RMK AC5AC1CI1 CI TR FROIN SLP087
07:00
V
-9 °C 20 mi - 180° 180° 3 kt METAR CYEG 251400Z 18003KT 20SM SCT210 M09/M10 A2966 RMK CI3 SLP084
06:00
V
-9 °C 20 mi - Var 000° 0 kt METAR CYEG 251300Z 00000KT 20SM FEW220 M09/M10 A2967 RMK CI1 CI TR SLP084
05:00
V
-9 °C 20 mi - Var 000° 0 kt METAR CYEG 251200Z 00000KT 20SM FEW220 M09/M10 A2969 RMK CI1 CI TR SLP090
04:00
V
-8 °C 20 mi - Var 000° 0 kt METAR CYEG 251100Z 00000KT 20SM SKC M08/M09 A2971 RMK SLP096
03:00
V
-7 °C 20 mi - 200° 200° 2 kt METAR CYEG 251000Z 20002KT 20SM FEW230 M07/M08 A2974 RMK CI1 CI TR SLP105

We and third parties follow your internet behavior on our website with cookies. If you continue, we assume you agree with our cookie policy.